createdAt,value
2018-07-15T00:01:41.656Z,15.40
2018-07-15T00:04:09.332Z,18.20
2018-07-15T00:06:37.035Z,16.40
2018-07-15T00:09:06.810Z,11.40
2018-07-15T00:11:34.532Z,9.60
2018-07-15T00:14:03.050Z,11.80
2018-07-15T00:16:31.054Z,8.80
2018-07-15T00:18:58.768Z,15.80
2018-07-15T00:21:26.450Z,14.00
2018-07-15T00:23:54.114Z,15.40
2018-07-15T00:26:25.356Z,14.00
2018-07-15T00:28:53.059Z,12.00
2018-07-15T00:31:20.754Z,16.40
2018-07-15T00:33:49.435Z,14.80
2018-07-15T00:36:18.909Z,17.00
2018-07-15T00:38:46.662Z,12.80
2018-07-15T00:41:14.750Z,15.20
2018-07-15T00:43:42.477Z,17.60
2018-07-15T00:46:10.207Z,14.60
2018-07-15T00:48:38.234Z,15.00
2018-07-15T00:51:05.909Z,12.20
2018-07-15T00:53:33.609Z,15.40
2018-07-15T00:56:01.602Z,12.60
2018-07-15T00:58:29.269Z,13.20
2018-07-15T01:01:02.616Z,17.00
2018-07-15T01:03:30.676Z,12.20
2018-07-15T01:05:58.708Z,15.40
2018-07-15T01:08:26.389Z,12.00
2018-07-15T01:10:54.094Z,17.00
2018-07-15T01:13:21.799Z,16.60
2018-07-15T01:15:49.816Z,16.80
2018-07-15T01:18:17.483Z,15.80
2018-07-15T01:20:45.170Z,13.60
2018-07-15T01:23:13.243Z,18.00
2018-07-15T01:25:40.937Z,14.00
2018-07-15T01:28:09.668Z,11.20
2018-07-15T01:30:37.413Z,17.40
2018-07-15T01:33:05.471Z,16.80
2018-07-15T01:35:33.181Z,10.80
2018-07-15T01:38:00.883Z,14.40
2018-07-15T01:40:29.477Z,13.40
2018-07-15T01:42:57.166Z,16.60
2018-07-15T01:45:24.829Z,14.60
2018-07-15T01:47:52.836Z,15.20
2018-07-15T01:50:20.855Z,17.00
2018-07-15T01:52:49.272Z,11.20
2018-07-15T01:55:16.979Z,13.00
2018-07-15T01:57:44.981Z,16.00
2018-07-15T02:00:13.745Z,17.40
2018-07-15T02:02:41.457Z,14.00
2018-07-15T02:05:09.151Z,15.80
2018-07-15T02:07:38.158Z,16.00
2018-07-15T02:10:05.884Z,14.20
2018-07-15T02:12:33.598Z,16.00
2018-07-15T02:15:02.911Z,15.00
2018-07-15T02:17:31.005Z,15.40
2018-07-15T02:19:59.281Z,12.80
2018-07-15T02:22:26.953Z,16.40
2018-07-15T02:24:54.908Z,12.20
2018-07-15T02:27:22.620Z,15.40
2018-07-15T02:29:50.304Z,14.20
2018-07-15T02:32:18.257Z,14.40
2018-07-15T02:34:45.909Z,17.40
2018-07-15T02:37:13.593Z,16.60
2018-07-15T02:39:41.257Z,17.00
2018-07-15T02:42:09.253Z,16.00
2018-07-15T02:44:36.951Z,17.20
2018-07-15T02:47:04.674Z,16.80
2018-07-15T02:49:32.737Z,16.20
2018-07-15T02:52:00.416Z,17.80
2018-07-15T02:54:28.118Z,16.00
2018-07-15T02:56:55.809Z,11.80
2018-07-15T02:59:23.745Z,15.80
2018-07-15T03:01:51.447Z,14.00
2018-07-15T03:04:19.177Z,11.60
2018-07-15T03:06:51.645Z,11.00
2018-07-15T03:09:19.642Z,15.60
2018-07-15T03:11:47.576Z,13.00
2018-07-15T03:14:15.267Z,13.60
2018-07-15T03:16:42.978Z,15.60
2018-07-15T03:19:10.694Z,10.20
2018-07-15T03:21:38.718Z,16.00
2018-07-15T03:24:06.431Z,16.00
2018-07-15T03:26:34.462Z,20.00
2018-07-15T03:29:02.148Z,16.00
2018-07-15T03:31:29.823Z,16.20
2018-07-15T03:33:57.514Z,17.20
2018-07-15T03:36:27.235Z,15.20
2018-07-15T03:38:54.931Z,15.20
2018-07-15T03:41:22.625Z,17.20
2018-07-15T03:43:50.438Z,14.20
2018-07-15T03:46:20.051Z,15.80
2018-07-15T03:48:47.694Z,15.20
2018-07-15T03:51:15.426Z,15.80
2018-07-15T03:53:43.412Z,15.00
2018-07-15T03:56:11.632Z,16.20
2018-07-15T03:58:39.325Z,17.20
2018-07-15T04:01:07.339Z,12.60
2018-07-15T04:03:35.031Z,17.20
2018-07-15T04:06:02.720Z,16.00
2018-07-15T04:08:31.574Z,14.20
2018-07-15T04:10:59.538Z,15.00
2018-07-15T04:13:27.242Z,15.00
2018-07-15T04:15:54.939Z,14.60
2018-07-15T04:18:22.605Z,16.00
2018-07-15T04:20:50.261Z,16.00
2018-07-15T04:23:17.930Z,17.00
2018-07-15T04:25:45.634Z,14.40
2018-07-15T04:28:13.663Z,16.40
2018-07-15T04:30:41.335Z,16.00
2018-07-15T04:33:09.029Z,18.00
2018-07-15T04:35:36.978Z,16.60
2018-07-15T04:38:04.667Z,13.40
2018-07-15T04:40:32.355Z,14.00
2018-07-15T04:43:00.114Z,17.20
2018-07-15T04:45:28.610Z,15.20
2018-07-15T04:47:56.307Z,15.20
2018-07-15T04:50:23.997Z,15.20
2018-07-15T04:52:52.319Z,16.00
2018-07-15T04:55:20.345Z,14.80
2018-07-15T04:57:48.014Z,16.20
2018-07-15T05:00:16.293Z,16.00
2018-07-15T05:02:43.953Z,17.20
2018-07-15T05:05:11.915Z,13.40
2018-07-15T05:07:40.518Z,16.20
2018-07-15T05:10:08.201Z,16.20
2018-07-15T05:12:35.896Z,17.20
2018-07-15T05:15:03.881Z,13.40
2018-07-15T05:17:31.656Z,17.80
2018-07-15T05:19:59.348Z,16.60
2018-07-15T05:22:29.288Z,18.00
2018-07-15T05:24:57.523Z,14.60
2018-07-15T05:27:25.208Z,16.60
2018-07-15T05:29:53.584Z,18.60
2018-07-15T05:32:21.605Z,17.60
2018-07-15T05:34:49.363Z,16.20
2018-07-15T05:37:17.059Z,16.80
2018-07-15T05:39:44.747Z,16.20
2018-07-15T05:42:12.741Z,15.40
2018-07-15T05:44:40.429Z,17.20
2018-07-15T05:47:08.128Z,15.40
2018-07-15T05:49:35.905Z,16.60
2018-07-15T05:52:04.717Z,14.60
2018-07-15T05:54:32.434Z,16.60
2018-07-15T05:57:01.353Z,18.20
2018-07-15T05:59:29.333Z,17.00
2018-07-15T06:01:57.803Z,17.00
2018-07-15T06:04:25.483Z,19.60
2018-07-15T06:06:53.527Z,12.20
2018-07-15T06:09:21.509Z,18.00
2018-07-15T06:11:49.211Z,16.00
2018-07-15T06:14:20.582Z,18.40
2018-07-15T06:16:48.285Z,18.00
2018-07-15T06:19:16.278Z,16.20
2018-07-15T06:21:43.937Z,17.40
2018-07-15T06:24:11.639Z,17.20
2018-07-15T06:26:39.608Z,17.80
2018-07-15T06:29:07.318Z,17.00
2018-07-15T06:31:35.267Z,21.00
2018-07-15T06:34:03.770Z,17.40
2018-07-15T06:36:31.762Z,16.00
2018-07-15T06:38:59.449Z,18.20
2018-07-15T06:41:27.279Z,15.00
2018-07-15T06:43:54.949Z,16.40
2018-07-15T06:46:26.025Z,15.00
2018-07-15T06:48:56.680Z,18.20
2018-07-15T06:51:24.359Z,19.20
2018-07-15T06:53:52.386Z,18.00
2018-07-15T06:56:21.966Z,15.20
2018-07-15T06:58:49.771Z,17.80
2018-07-15T07:01:17.902Z,18.40
2018-07-15T07:03:45.657Z,15.00
2018-07-15T07:06:13.422Z,17.20
2018-07-15T07:08:42.214Z,14.60
2018-07-15T07:11:10.080Z,9.00
2018-07-15T07:13:37.792Z,16.60
2018-07-15T07:16:05.523Z,17.00
2018-07-15T07:18:33.534Z,15.00
2018-07-15T07:21:01.300Z,15.00
2018-07-15T07:23:33.551Z,13.00
2018-07-15T07:26:02.127Z,16.00
2018-07-15T07:28:29.844Z,16.00
2018-07-15T07:30:57.759Z,17.00
2018-07-15T07:33:25.723Z,13.60
2018-07-15T07:35:54.281Z,13.40
2018-07-15T07:38:21.990Z,13.20
2018-07-15T07:40:50.006Z,12.60
2018-07-15T07:43:18.547Z,13.80
2018-07-15T07:45:48.651Z,14.00
2018-07-15T07:48:16.623Z,11.20
2018-07-15T07:50:44.351Z,9.20
2018-07-15T07:53:12.737Z,11.20
2018-07-15T07:55:41.051Z,11.00
2018-07-15T07:58:08.848Z,11.20
2018-07-15T08:00:36.592Z,10.40
2018-07-15T08:03:05.538Z,12.60
2018-07-15T08:05:33.246Z,10.20
2018-07-15T08:08:01.761Z,9.00
2018-07-15T08:10:29.776Z,7.80
2018-07-15T08:12:57.466Z,9.00
2018-07-15T08:15:25.216Z,8.00
2018-07-15T08:17:53.207Z,6.00
2018-07-15T08:20:20.923Z,8.60
2018-07-15T08:22:48.642Z,9.00
2018-07-15T08:25:16.608Z,10.00
2018-07-15T08:27:44.334Z,7.40
2018-07-15T08:30:13.539Z,9.60
2018-07-15T08:32:41.569Z,9.00
2018-07-15T08:35:10.043Z,9.80
2018-07-15T08:37:37.692Z,9.00
2018-07-15T08:40:05.647Z,9.80
2018-07-15T08:42:33.337Z,10.00
2018-07-15T08:45:00.998Z,11.00
2018-07-15T08:47:28.980Z,8.20
2018-07-15T08:49:56.694Z,10.60
2018-07-15T08:52:24.426Z,9.60
2018-07-15T08:54:52.350Z,9.80
2018-07-15T08:57:20.046Z,10.00
2018-07-15T08:59:47.774Z,8.00
2018-07-15T09:02:17.157Z,8.00
2018-07-15T09:04:44.810Z,9.20
2018-07-15T09:07:12.486Z,7.40
2018-07-15T09:09:40.440Z,8.00
2018-07-15T09:12:08.110Z,8.60
2018-07-15T09:14:36.422Z,10.00
2018-07-15T09:17:06.566Z,7.80
2018-07-15T09:19:34.261Z,9.00
2018-07-15T09:22:02.766Z,8.20
2018-07-15T09:24:31.137Z,8.80
2018-07-15T09:26:59.623Z,8.20
2018-07-15T09:29:29.001Z,9.00
2018-07-15T09:31:57.894Z,7.80
2018-07-15T09:34:25.556Z,8.20
2018-07-15T09:40:05.867Z,8.00
2018-07-15T09:42:33.581Z,6.20
2018-07-15T09:45:02.142Z,7.80
2018-07-15T09:47:29.874Z,7.00
2018-07-15T09:49:58.914Z,7.00
2018-07-15T09:52:26.889Z,3.20
2018-07-15T09:54:55.538Z,8.20
2018-07-15T09:57:28.682Z,8.00
2018-07-15T09:59:57.513Z,7.20
2018-07-15T10:02:25.224Z,7.40
2018-07-15T10:04:52.959Z,6.80
2018-07-15T10:07:21.779Z,6.60
2018-07-15T10:09:49.533Z,7.00
2018-07-15T10:12:20.207Z,7.00
2018-07-15T10:14:48.199Z,3.00
2018-07-15T10:17:16.471Z,4.00
2018-07-15T10:19:44.178Z,3.20
2018-07-15T10:22:13.500Z,4.00
2018-07-15T10:24:41.188Z,5.80
2018-07-15T10:27:09.753Z,3.40
2018-07-15T10:29:37.747Z,4.80
2018-07-15T10:32:06.593Z,3.20
2018-07-15T10:34:34.887Z,3.60
2018-07-15T10:37:02.885Z,6.40
2018-07-15T10:39:30.570Z,2.40
2018-07-15T10:41:59.517Z,2.40
2018-07-15T10:44:28.037Z,1.40
2018-07-15T10:46:55.740Z,4.00
2018-07-15T10:49:24.353Z,2.00
2018-07-15T10:51:53.187Z,2.20
2018-07-15T10:54:22.932Z,2.20
2018-07-15T10:56:51.574Z,2.00
2018-07-15T10:59:20.560Z,4.40
2018-07-15T11:01:51.921Z,3.00
2018-07-15T11:04:19.658Z,3.00
2018-07-15T11:06:48.347Z,3.60
2018-07-15T11:09:16.021Z,2.00
2018-07-15T11:11:44.674Z,3.20
2018-07-15T11:14:12.652Z,3.00
2018-07-15T11:16:41.196Z,4.00
2018-07-15T11:19:08.902Z,4.00
2018-07-15T11:21:37.029Z,3.20
2018-07-15T11:24:06.891Z,2.00
2018-07-15T11:26:35.531Z,2.00
2018-07-15T11:29:04.406Z,3.20
2018-07-15T11:31:32.825Z,3.00
2018-07-15T11:34:00.691Z,3.00
2018-07-15T11:36:30.242Z,2.80
2018-07-15T11:38:59.501Z,2.40
2018-07-15T11:41:27.281Z,1.60
2018-07-15T11:43:56.933Z,2.80
2018-07-15T11:46:26.725Z,1.00
2018-07-15T11:48:54.438Z,2.00
2018-07-15T11:51:22.420Z,2.60
2018-07-15T11:53:51.189Z,3.20
2018-07-15T11:56:20.438Z,3.00
2018-07-15T11:58:48.739Z,3.00
2018-07-15T12:01:17.459Z,4.00
2018-07-15T12:03:45.186Z,3.00
2018-07-15T12:06:14.887Z,3.00
2018-07-15T12:08:42.594Z,1.40
2018-07-15T12:11:10.321Z,2.00
2018-07-15T12:13:40.001Z,2.00
2018-07-15T12:16:07.767Z,2.00
2018-07-15T12:18:35.469Z,3.00
2018-07-15T12:21:03.780Z,2.40
2018-07-15T12:23:31.774Z,2.20
2018-07-15T12:26:00.142Z,2.00
2018-07-15T12:28:28.167Z,2.00
2018-07-15T12:30:55.887Z,2.00
2018-07-15T12:33:24.290Z,3.40
2018-07-15T12:35:52.693Z,2.00
2018-07-15T12:38:20.913Z,2.00
2018-07-15T12:40:51.578Z,2.00
2018-07-15T12:43:19.764Z,2.60
2018-07-15T12:45:47.473Z,1.80
2018-07-15T12:48:15.192Z,3.00
2018-07-15T12:50:44.286Z,1.60
2018-07-15T12:53:12.811Z,2.20
2018-07-15T12:55:41.216Z,2.00
2018-07-15T12:58:09.421Z,1.60
2018-07-15T13:00:38.711Z,2.00
2018-07-15T13:03:07.816Z,2.00
2018-07-15T13:05:37.448Z,2.00
2018-07-15T13:08:05.571Z,2.60
2018-07-15T13:10:35.695Z,2.00
2018-07-15T13:13:05.227Z,2.00
2018-07-15T13:15:32.938Z,3.00
2018-07-15T13:18:00.650Z,2.00
2018-07-15T13:20:29.865Z,2.00
2018-07-15T13:22:58.507Z,3.00
2018-07-15T13:25:26.221Z,1.20
2018-07-15T13:27:54.417Z,1.80
2018-07-15T13:30:26.236Z,1.20
2018-07-15T13:32:57.561Z,2.60
2018-07-15T13:35:26.445Z,3.00
2018-07-15T13:37:54.705Z,1.60
2018-07-15T13:40:24.350Z,1.60
2018-07-15T13:42:52.578Z,2.00
2018-07-15T13:45:20.927Z,1.00
2018-07-15T13:47:51.613Z,0.60
2018-07-15T13:50:21.338Z,1.00
2018-07-15T13:52:49.023Z,2.00
2018-07-15T13:55:16.731Z,1.00
2018-07-15T13:57:44.847Z,1.60
2018-07-15T14:00:13.520Z,2.00
2018-07-15T14:02:41.222Z,1.80
2018-07-15T14:05:09.540Z,1.00
2018-07-15T14:07:38.645Z,1.20
2018-07-15T14:10:07.323Z,2.00
2018-07-15T14:12:35.317Z,1.20
2018-07-15T14:15:04.394Z,1.00
2018-07-15T14:20:07.439Z,1.00
2018-07-15T14:22:36.646Z,0.40
2018-07-15T14:25:05.736Z,1.00
2018-07-15T14:27:34.455Z,1.00
2018-07-15T14:30:04.260Z,1.00
2018-07-15T14:32:33.532Z,1.00
2018-07-15T14:35:02.368Z,1.00
2018-07-15T14:37:30.689Z,0.20
2018-07-15T14:39:58.447Z,1.00
2018-07-15T14:42:29.137Z,0.00
2018-07-15T14:44:58.581Z,0.20
2018-07-15T14:47:33.591Z,1.20
2018-07-15T14:50:02.402Z,1.00
2018-07-15T14:52:30.769Z,0.40
2018-07-15T14:54:58.456Z,0.40
2018-07-15T14:57:27.596Z,0.40
2018-07-15T14:59:55.288Z,0.20
2018-07-15T15:02:22.993Z,0.20
2018-07-15T15:04:51.934Z,0.20
2018-07-15T15:07:20.308Z,0.00
2018-07-15T15:09:48.771Z,0.00
2018-07-15T15:12:16.756Z,0.60
2018-07-15T15:14:47.695Z,1.00
2018-07-15T15:17:16.417Z,1.00
2018-07-15T15:19:44.427Z,0.40
2018-07-15T15:22:13.145Z,0.00
2018-07-15T15:24:41.802Z,0.00
2018-07-15T15:27:10.313Z,0.00
2018-07-15T15:29:39.974Z,0.00
2018-07-15T15:32:08.381Z,0.60
2018-07-15T15:34:38.450Z,1.00
2018-07-15T15:37:07.072Z,0.20
2018-07-15T15:39:35.672Z,1.00
2018-07-15T15:42:04.749Z,0.20
2018-07-15T15:44:32.462Z,0.00
2018-07-15T15:47:00.176Z,0.00
2018-07-15T15:49:28.192Z,1.00
2018-07-15T15:51:56.641Z,0.20
2018-07-15T15:54:24.395Z,1.00
2018-07-15T15:56:52.627Z,1.00
2018-07-15T15:59:21.249Z,1.00
2018-07-15T16:01:48.966Z,1.00
2018-07-15T16:04:17.642Z,1.00
2018-07-15T16:06:46.152Z,0.40
2018-07-15T16:09:16.845Z,0.40
2018-07-15T16:11:45.214Z,0.40
2018-07-15T16:14:13.933Z,0.00
2018-07-15T16:16:42.667Z,1.00
2018-07-15T16:19:15.150Z,1.00
2018-07-15T16:21:45.460Z,1.00
2018-07-15T16:24:17.675Z,0.40
2018-07-15T16:26:47.457Z,2.80
2018-07-15T16:29:15.153Z,0.00
2018-07-15T16:31:47.454Z,0.80
2018-07-15T16:34:15.228Z,0.40
2018-07-15T16:36:42.904Z,1.00
2018-07-15T16:39:11.046Z,2.00
2018-07-15T16:41:39.428Z,1.00
2018-07-15T16:44:07.208Z,1.80
2018-07-15T16:46:36.205Z,1.00
2018-07-15T16:49:03.910Z,1.00
2018-07-15T16:51:33.082Z,1.40
2018-07-15T16:54:01.644Z,0.20
2018-07-15T16:56:29.341Z,0.20
2018-07-15T16:58:58.268Z,1.00
2018-07-15T17:01:26.305Z,1.00
2018-07-15T17:03:55.515Z,1.00
